sensor_id;sensor_type;location;lat;lon;timestamp;pressure;altitude;pressure_sealevel;temperature;humidity
55079;BME280;55187;49.496;6.010;2023-01-31T00:01:31;98449.84;;;-3.02;100.00
55079;BME280;55187;49.496;6.010;2023-01-31T00:04:00;98444.81;;;-3.05;100.00
55079;BME280;55187;49.496;6.010;2023-01-31T00:06:30;98441.47;;;-3.07;100.00
55079;BME280;55187;49.496;6.010;2023-01-31T00:08:58;98450.06;;;-3.06;100.00
55079;BME280;55187;49.496;6.010;2023-01-31T00:11:26;98454.25;;;-3.20;100.00
55079;BME280;55187;49.496;6.010;2023-01-31T00:13:54;98447.81;;;-3.12;100.00
55079;BME280;55187;49.496;6.010;2023-01-31T00:16:21;98453.66;;;-3.09;100.00
55079;BME280;55187;49.496;6.010;2023-01-31T00:18:48;98455.00;;;-3.02;100.00
55079;BME280;55187;49.496;6.010;2023-01-31T00:21:17;98450.84;;;-3.04;100.00
55079;BME280;55187;49.496;6.010;2023-01-31T00:23:45;98445.66;;;-3.04;100.00
55079;BME280;55187;49.496;6.010;2023-01-31T00:26:17;98456.28;;;-2.93;100.00
55079;BME280;55187;49.496;6.010;2023-01-31T00:28:45;98443.75;;;-3.01;100.00
55079;BME280;55187;49.496;6.010;2023-01-31T00:31:13;98444.00;;;-3.05;100.00
55079;BME280;55187;49.496;6.010;2023-01-31T00:33:41;98442.78;;;-3.16;100.00
55079;BME280;55187;49.496;6.010;2023-01-31T00:36:10;98429.09;;;-3.18;100.00
55079;BME280;55187;49.496;6.010;2023-01-31T00:38:37;98439.84;;;-3.25;100.00
55079;BME280;55187;49.496;6.010;2023-01-31T00:41:04;98444.13;;;-3.08;100.00
55079;BME280;55187;49.496;6.010;2023-01-31T00:43:33;98446.84;;;-2.94;100.00
55079;BME280;55187;49.496;6.010;2023-01-31T00:46:00;98451.59;;;-3.02;100.00
55079;BME280;55187;49.496;6.010;2023-01-31T00:48:26;98447.88;;;-2.97;100.00
55079;BME280;55187;49.496;6.010;2023-01-31T00:50:53;98441.50;;;-2.91;100.00
55079;BME280;55187;49.496;6.010;2023-01-31T00:53:20;98451.88;;;-2.91;100.00
55079;BME280;55187;49.496;6.010;2023-01-31T00:55:52;98454.69;;;-2.96;100.00
55079;BME280;55187;49.496;6.010;2023-01-31T00:58:19;98442.16;;;-3.03;100.00
55079;BME280;55187;49.496;6.010;2023-01-31T01:00:47;98438.13;;;-3.09;100.00
55079;BME280;55187;49.496;6.010;2023-01-31T01:03:13;98440.34;;;-3.01;100.00
55079;BME280;55187;49.496;6.010;2023-01-31T01:05:40;98446.47;;;-3.04;100.00
55079;BME280;55187;49.496;6.010;2023-01-31T01:08:07;98436.13;;;-3.04;100.00
55079;BME280;55187;49.496;6.010;2023-01-31T01:10:33;98437.31;;;-3.09;100.00
55079;BME280;55187;49.496;6.010;2023-01-31T01:13:01;98433.66;;;-3.05;100.00
55079;BME280;55187;49.496;6.010;2023-01-31T01:15:28;98439.13;;;-3.11;100.00
55079;BME280;55187;49.496;6.010;2023-01-31T01:17:54;98443.38;;;-3.26;100.00
55079;BME280;55187;49.496;6.010;2023-01-31T01:20:21;98448.09;;;-3.34;100.00
55079;BME280;55187;49.496;6.010;2023-01-31T01:22:47;98435.50;;;-3.25;100.00
55079;BME280;55187;49.496;6.010;2023-01-31T01:25:15;98433.53;;;-3.20;100.00
55079;BME280;55187;49.496;6.010;2023-01-31T01:27:41;98434.88;;;-3.12;100.00
55079;BME280;55187;49.496;6.010;2023-01-31T01:30:08;98430.03;;;-3.19;100.00
55079;BME280;55187;49.496;6.010;2023-01-31T01:32:34;98439.84;;;-3.25;100.00
55079;BME280;55187;49.496;6.010;2023-01-31T01:35:01;98437.59;;;-3.16;100.00
55079;BME280;55187;49.496;6.010;2023-01-31T01:37:27;98436.50;;;-3.27;100.00
55079;BME280;55187;49.496;6.010;2023-01-31T01:39:56;98431.03;;;-3.39;100.00
55079;BME280;55187;49.496;6.010;2023-01-31T01:42:24;98431.56;;;-3.32;100.00
55079;BME280;55187;49.496;6.010;2023-01-31T01:45:00;98434.25;;;-3.33;100.00
55079;BME280;55187;49.496;6.010;2023-01-31T01:49:28;98435.66;;;-3.28;100.00
55079;BME280;55187;49.496;6.010;2023-01-31T01:51:59;98426.91;;;-2.92;100.00
55079;BME280;55187;49.496;6.010;2023-01-31T01:54:35;98435.03;;;-3.16;100.00
55079;BME280;55187;49.496;6.010;2023-01-31T01:57:04;98429.47;;;-3.08;100.00
55079;BME280;55187;49.496;6.010;2023-01-31T01:59:42;98430.94;;;-3.04;100.00
55079;BME280;55187;49.496;6.010;2023-01-31T02:02:11;98432.63;;;-3.03;100.00
55079;BME280;55187;49.496;6.010;2023-01-31T02:04:39;98435.88;;;-2.99;100.00
55079;BME280;55187;49.496;6.010;2023-01-31T02:07:09;98433.50;;;-2.86;100.00
55079;BME280;55187;49.496;6.010;2023-01-31T02:10:04;98429.81;;;-2.98;100.00
55079;BME280;55187;49.496;6.010;2023-01-31T02:12:32;98440.06;;;-3.12;100.00
55079;BME280;55187;49.496;6.010;2023-01-31T02:14:59;98437.84;;;-2.87;100.00
55079;BME280;55187;49.496;6.010;2023-01-31T02:17:26;98431.22;;;-2.92;100.00
55079;BME280;55187;49.496;6.010;2023-01-31T02:44:07;98431.78;;;-3.19;100.00
55079;BME280;55187;49.496;6.010;2023-01-31T02:50:10;98435.50;;;-3.25;100.00
55079;BME280;55187;49.496;6.010;2023-01-31T02:52:31;98434.19;;;-3.16;100.00
55079;BME280;55187;49.496;6.010;2023-01-31T02:55:11;98436.94;;;-3.19;100.00
55079;BME280;55187;49.496;6.010;2023-01-31T02:57:59;98431.44;;;-3.13;100.00
55079;BME280;55187;49.496;6.010;2023-01-31T03:00:28;98435.91;;;-2.83;100.00
55079;BME280;55187;49.496;6.010;2023-01-31T03:02:57;98434.78;;;-3.11;100.00
55079;BME280;55187;49.496;6.010;2023-01-31T03:05:23;98428.34;;;-3.20;100.00
55079;BME280;55187;49.496;6.010;2023-01-31T03:07:56;98439.13;;;-3.11;100.00
55079;BME280;55187;49.496;6.010;2023-01-31T03:11:01;98436.91;;;-3.35;100.00
55079;BME280;55187;49.496;6.010;2023-01-31T03:13:51;98424.56;;;-3.30;100.00
55079;BME280;55187;49.496;6.010;2023-01-31T03:16:28;98421.50;;;-3.21;100.00
55079;BME280;55187;49.496;6.010;2023-01-31T03:19:20;98418.94;;;-3.05;100.00
55079;BME280;55187;49.496;6.010;2023-01-31T03:21:56;98412.06;;;-3.22;100.00
55079;BME280;55187;49.496;6.010;2023-01-31T03:24:26;98418.19;;;-3.07;100.00
55079;BME280;55187;49.496;6.010;2023-01-31T03:26:56;98421.28;;;-3.00;100.00
55079;BME280;55187;49.496;6.010;2023-01-31T03:29:25;98419.69;;;-3.03;100.00
55079;BME280;55187;49.496;6.010;2023-01-31T03:31:58;98429.16;;;-2.70;100.00
55079;BME280;55187;49.496;6.010;2023-01-31T03:34:25;98417.72;;;-2.66;100.00
55079;BME280;55187;49.496;6.010;2023-01-31T03:36:58;98409.41;;;-3.04;100.00
55079;BME280;55187;49.496;6.010;2023-01-31T03:40:08;98406.91;;;-3.06;100.00
55079;BME280;55187;49.496;6.010;2023-01-31T03:42:49;98418.09;;;-3.05;100.00
55079;BME280;55187;49.496;6.010;2023-01-31T03:45:37;98411.63;;;-3.30;100.00
55079;BME280;55187;49.496;6.010;2023-01-31T03:48:07;98415.56;;;-3.23;100.00
55079;BME280;55187;49.496;6.010;2023-01-31T03:50:50;98417.72;;;-3.31;100.00
55079;BME280;55187;49.496;6.010;2023-01-31T03:53:21;98418.56;;;-3.48;100.00
55079;BME280;55187;49.496;6.010;2023-01-31T03:58:25;98399.31;;;-3.42;100.00
55079;BME280;55187;49.496;6.010;2023-01-31T04:00:57;98406.56;;;-3.49;100.00
55079;BME280;55187;49.496;6.010;2023-01-31T04:03:35;98401.16;;;-3.62;100.00
55079;BME280;55187;49.496;6.010;2023-01-31T04:06:02;98403.00;;;-3.64;100.00
55079;BME280;55187;49.496;6.010;2023-01-31T04:08:31;98408.22;;;-3.48;100.00
55079;BME280;55187;49.496;6.010;2023-01-31T04:11:07;98407.03;;;-3.58;100.00
55079;BME280;55187;49.496;6.010;2023-01-31T04:13:34;98402.94;;;-3.62;100.00
55079;BME280;55187;49.496;6.010;2023-01-31T04:16:01;98409.63;;;-3.75;100.00
55079;BME280;55187;49.496;6.010;2023-01-31T04:18:27;98411.09;;;-3.87;100.00
55079;BME280;55187;49.496;6.010;2023-01-31T04:20:54;98426.25;;;-3.80;100.00
55079;BME280;55187;49.496;6.010;2023-01-31T04:23:20;98424.44;;;-3.62;100.00
55079;BME280;55187;49.496;6.010;2023-01-31T04:25:47;98434.91;;;-3.63;100.00
55079;BME280;55187;49.496;6.010;2023-01-31T04:28:13;98438.22;;;-3.44;100.00
55079;BME280;55187;49.496;6.010;2023-01-31T04:30:40;98435.63;;;-3.44;100.00
55079;BME280;55187;49.496;6.010;2023-01-31T04:33:06;98440.69;;;-3.25;100.00
55079;BME280;55187;49.496;6.010;2023-01-31T04:35:32;98427.88;;;-3.10;100.00
55079;BME280;55187;49.496;6.010;2023-01-31T04:38:00;98420.00;;;-3.09;100.00
55079;BME280;55187;49.496;6.010;2023-01-31T04:40:26;98425.88;;;-3.05;100.00
55079;BME280;55187;49.496;6.010;2023-01-31T04:42:53;98417.66;;;-3.13;100.00
55079;BME280;55187;49.496;6.010;2023-01-31T04:45:19;98420.94;;;-3.10;100.00
55079;BME280;55187;49.496;6.010;2023-01-31T04:49:49;98423.69;;;-2.97;100.00
55079;BME280;55187;49.496;6.010;2023-01-31T04:52:15;98412.75;;;-3.02;100.00
55079;BME280;55187;49.496;6.010;2023-01-31T04:54:42;98408.44;;;-2.86;100.00
55079;BME280;55187;49.496;6.010;2023-01-31T04:57:08;98414.84;;;-2.93;100.00
55079;BME280;55187;49.496;6.010;2023-01-31T04:59:34;98418.53;;;-2.97;100.00
55079;BME280;55187;49.496;6.010;2023-01-31T05:02:01;98414.59;;;-3.04;100.00
55079;BME280;55187;49.496;6.010;2023-01-31T05:04:27;98415.13;;;-2.82;100.00
55079;BME280;55187;49.496;6.010;2023-01-31T05:06:54;98425.31;;;-2.63;100.00
55079;BME280;55187;49.496;6.010;2023-01-31T05:09:20;98420.81;;;-2.59;100.00
55079;BME280;55187;49.496;6.010;2023-01-31T05:11:47;98426.31;;;-2.49;100.00
55079;BME280;55187;49.496;6.010;2023-01-31T05:14:14;98420.56;;;-2.55;100.00
55079;BME280;55187;49.496;6.010;2023-01-31T05:16:41;98418.47;;;-2.64;100.00
55079;BME280;55187;49.496;6.010;2023-01-31T05:19:13;98423.91;;;-2.53;100.00
55079;BME280;55187;49.496;6.010;2023-01-31T05:21:41;98411.72;;;-2.66;100.00
55079;BME280;55187;49.496;6.010;2023-01-31T05:24:30;98406.91;;;-2.58;100.00
55079;BME280;55187;49.496;6.010;2023-01-31T05:26:58;98398.13;;;-2.56;100.00
55079;BME280;55187;49.496;6.010;2023-01-31T05:29:27;98399.06;;;-2.72;100.00
55079;BME280;55187;49.496;6.010;2023-01-31T05:31:56;98398.00;;;-2.53;100.00
55079;BME280;55187;49.496;6.010;2023-01-31T05:34:24;98398.75;;;-2.50;100.00
55079;BME280;55187;49.496;6.010;2023-01-31T05:36:51;98405.25;;;-2.59;100.00
55079;BME280;55187;49.496;6.010;2023-01-31T05:39:18;98401.34;;;-2.82;100.00
55079;BME280;55187;49.496;6.010;2023-01-31T05:41:44;98397.56;;;-2.61;100.00
55079;BME280;55187;49.496;6.010;2023-01-31T05:44:11;98378.69;;;-2.79;100.00
55079;BME280;55187;49.496;6.010;2023-01-31T05:46:37;98396.47;;;-2.88;100.00
55079;BME280;55187;49.496;6.010;2023-01-31T05:49:04;98405.06;;;-2.88;100.00
55079;BME280;55187;49.496;6.010;2023-01-31T05:51:31;98400.75;;;-3.03;100.00
55079;BME280;55187;49.496;6.010;2023-01-31T05:53:58;98403.34;;;-3.03;100.00
55079;BME280;55187;49.496;6.010;2023-01-31T05:56:24;98401.59;;;-2.87;100.00
55079;BME280;55187;49.496;6.010;2023-01-31T05:58:51;98408.56;;;-3.05;100.00
55079;BME280;55187;49.496;6.010;2023-01-31T06:01:21;98411.94;;;-3.03;100.00
55079;BME280;55187;49.496;6.010;2023-01-31T06:03:49;98416.28;;;-3.03;100.00
55079;BME280;55187;49.496;6.010;2023-01-31T06:06:15;98402.84;;;-2.78;100.00
55079;BME280;55187;49.496;6.010;2023-01-31T06:08:42;98406.91;;;-2.74;100.00
55079;BME280;55187;49.496;6.010;2023-01-31T06:11:10;98407.41;;;-2.83;100.00
55079;BME280;55187;49.496;6.010;2023-01-31T06:13:38;98403.19;;;-2.68;100.00
55079;BME280;55187;49.496;6.010;2023-01-31T06:16:05;98408.84;;;-2.78;100.00
55079;BME280;55187;49.496;6.010;2023-01-31T06:18:31;98415.56;;;-2.73;100.00
55079;BME280;55187;49.496;6.010;2023-01-31T06:20:58;98421.19;;;-2.35;100.00
55079;BME280;55187;49.496;6.010;2023-01-31T06:23:24;98414.94;;;-2.31;100.00
55079;BME280;55187;49.496;6.010;2023-01-31T06:25:51;98412.00;;;-2.25;100.00
55079;BME280;55187;49.496;6.010;2023-01-31T06:28:18;98416.75;;;-2.33;100.00
55079;BME280;55187;49.496;6.010;2023-01-31T06:30:45;98413.66;;;-2.24;100.00
55079;BME280;55187;49.496;6.010;2023-01-31T06:33:12;98416.19;;;-2.22;100.00
55079;BME280;55187;49.496;6.010;2023-01-31T06:35:38;98422.88;;;-2.18;100.00
55079;BME280;55187;49.496;6.010;2023-01-31T06:38:06;98424.97;;;-2.25;100.00
55079;BME280;55187;49.496;6.010;2023-01-31T06:40:33;98437.19;;;-2.27;100.00
55079;BME280;55187;49.496;6.010;2023-01-31T06:43:01;98428.81;;;-2.32;100.00
55079;BME280;55187;49.496;6.010;2023-01-31T06:45:27;98427.13;;;-2.33;100.00
55079;BME280;55187;49.496;6.010;2023-01-31T06:47:54;98430.31;;;-2.28;100.00
55079;BME280;55187;49.496;6.010;2023-01-31T06:50:20;98433.06;;;-2.31;100.00
55079;BME280;55187;49.496;6.010;2023-01-31T06:52:47;98427.06;;;-2.32;100.00
55079;BME280;55187;49.496;6.010;2023-01-31T06:55:13;98433.50;;;-2.39;100.00
55079;BME280;55187;49.496;6.010;2023-01-31T06:57:47;98431.94;;;-2.41;100.00
55079;BME280;55187;49.496;6.010;2023-01-31T07:00:15;98420.47;;;-2.53;100.00
55079;BME280;55187;49.496;6.010;2023-01-31T07:02:44;98419.72;;;-2.71;100.00
55079;BME280;55187;49.496;6.010;2023-01-31T07:05:11;98414.63;;;-2.72;100.00
55079;BME280;55187;49.496;6.010;2023-01-31T07:07:37;98406.66;;;-2.69;100.00
55079;BME280;55187;49.496;6.010;2023-01-31T07:10:04;98428.06;;;-2.66;100.00
55079;BME280;55187;49.496;6.010;2023-01-31T07:12:30;98430.16;;;-2.57;100.00
55079;BME280;55187;49.496;6.010;2023-01-31T07:14:57;98441.28;;;-2.55;100.00
55079;BME280;55187;49.496;6.010;2023-01-31T07:17:24;98444.63;;;-2.37;100.00
55079;BME280;55187;49.496;6.010;2023-01-31T07:19:50;98444.72;;;-2.38;100.00
55079;BME280;55187;49.496;6.010;2023-01-31T07:22:16;98438.50;;;-2.36;100.00
55079;BME280;55187;49.496;6.010;2023-01-31T07:24:43;98432.75;;;-2.25;100.00
55079;BME280;55187;49.496;6.010;2023-01-31T07:27:12;98432.47;;;-2.20;100.00
55079;BME280;55187;49.496;6.010;2023-01-31T07:29:39;98439.19;;;-2.16;100.00
55079;BME280;55187;49.496;6.010;2023-01-31T07:32:06;98437.47;;;-2.17;100.00
55079;BME280;55187;49.496;6.010;2023-01-31T07:34:32;98448.09;;;-2.06;100.00
55079;BME280;55187;49.496;6.010;2023-01-31T07:36:58;98446.75;;;-1.97;100.00
55079;BME280;55187;49.496;6.010;2023-01-31T07:39:27;98446.47;;;-1.93;100.00
55079;BME280;55187;49.496;6.010;2023-01-31T07:41:53;98442.13;;;-1.92;100.00
55079;BME280;55187;49.496;6.010;2023-01-31T07:44:24;98443.44;;;-1.85;100.00
55079;BME280;55187;49.496;6.010;2023-01-31T07:46:50;98440.34;;;-1.92;100.00
55079;BME280;55187;49.496;6.010;2023-01-31T07:49:19;98436.59;;;-1.86;100.00
55079;BME280;55187;49.496;6.010;2023-01-31T07:51:46;98433.72;;;-1.81;100.00
55079;BME280;55187;49.496;6.010;2023-01-31T07:54:12;98431.16;;;-1.81;100.00
55079;BME280;55187;49.496;6.010;2023-01-31T07:56:39;98434.38;;;-1.78;100.00
55079;BME280;55187;49.496;6.010;2023-01-31T07:59:06;98427.06;;;-1.71;100.00
55079;BME280;55187;49.496;6.010;2023-01-31T08:01:32;98440.13;;;-1.73;100.00
55079;BME280;55187;49.496;6.010;2023-01-31T08:04:17;98439.59;;;-1.63;100.00
55079;BME280;55187;49.496;6.010;2023-01-31T08:06:44;98434.50;;;-1.65;100.00
55079;BME280;55187;49.496;6.010;2023-01-31T08:09:12;98440.06;;;-1.57;100.00
55079;BME280;55187;49.496;6.010;2023-01-31T08:11:39;98444.91;;;-1.51;100.00
55079;BME280;55187;49.496;6.010;2023-01-31T08:14:05;98452.91;;;-1.54;100.00
55079;BME280;55187;49.496;6.010;2023-01-31T08:16:33;98454.47;;;-1.51;100.00
55079;BME280;55187;49.496;6.010;2023-01-31T08:19:01;98451.97;;;-1.38;100.00
55079;BME280;55187;49.496;6.010;2023-01-31T08:21:28;98452.72;;;-1.36;100.00
55079;BME280;55187;49.496;6.010;2023-01-31T08:23:55;98458.03;;;-1.38;100.00
55079;BME280;55187;49.496;6.010;2023-01-31T08:26:21;98453.47;;;-1.20;100.00
55079;BME280;55187;49.496;6.010;2023-01-31T08:28:49;98447.19;;;-1.16;100.00
55079;BME280;55187;49.496;6.010;2023-01-31T08:31:21;98434.03;;;-1.13;100.00
55079;BME280;55187;49.496;6.010;2023-01-31T08:33:48;98418.44;;;-1.13;100.00
55079;BME280;55187;49.496;6.010;2023-01-31T08:36:19;98424.94;;;-1.06;100.00
55079;BME280;55187;49.496;6.010;2023-01-31T08:38:46;98414.34;;;-1.02;100.00
55079;BME280;55187;49.496;6.010;2023-01-31T08:41:13;98414.72;;;-1.09;100.00
55079;BME280;55187;49.496;6.010;2023-01-31T08:43:41;98412.00;;;-0.93;100.00
55079;BME280;55187;49.496;6.010;2023-01-31T08:46:08;98404.09;;;-0.77;100.00
55079;BME280;55187;49.496;6.010;2023-01-31T08:48:36;98404.47;;;-0.69;100.00
55079;BME280;55187;49.496;6.010;2023-01-31T08:51:04;98416.25;;;-0.63;100.00
55079;BME280;55187;49.496;6.010;2023-01-31T08:53:32;98419.78;;;-0.64;100.00
55079;BME280;55187;49.496;6.010;2023-01-31T08:56:00;98430.13;;;-0.50;100.00
55079;BME280;55187;49.496;6.010;2023-01-31T08:58:27;98431.25;;;-0.54;100.00
55079;BME280;55187;49.496;6.010;2023-01-31T09:00:53;98447.59;;;-0.52;100.00
55079;BME280;55187;49.496;6.010;2023-01-31T09:03:20;98447.84;;;-0.42;100.00
55079;BME280;55187;49.496;6.010;2023-01-31T09:05:46;98458.25;;;-0.42;100.00
55079;BME280;55187;49.496;6.010;2023-01-31T09:08:13;98463.84;;;-0.48;100.00
55079;BME280;55187;49.496;6.010;2023-01-31T09:10:39;98460.31;;;-0.47;100.00
55079;BME280;55187;49.496;6.010;2023-01-31T09:13:05;98469.22;;;-0.51;100.00
55079;BME280;55187;49.496;6.010;2023-01-31T09:15:32;98459.38;;;-0.46;100.00
55079;BME280;55187;49.496;6.010;2023-01-31T09:17:58;98464.19;;;-0.40;100.00
55079;BME280;55187;49.496;6.010;2023-01-31T09:20:24;98467.16;;;-0.46;100.00
55079;BME280;55187;49.496;6.010;2023-01-31T09:22:51;98459.81;;;-0.39;100.00
55079;BME280;55187;49.496;6.010;2023-01-31T09:25:17;98447.47;;;-0.36;100.00
55079;BME280;55187;49.496;6.010;2023-01-31T09:27:44;98473.28;;;-0.33;100.00
55079;BME280;55187;49.496;6.010;2023-01-31T09:30:10;98471.41;;;-0.31;100.00
55079;BME280;55187;49.496;6.010;2023-01-31T09:32:37;98476.63;;;-0.31;100.00
55079;BME280;55187;49.496;6.010;2023-01-31T09:35:04;98474.84;;;-0.30;100.00
55079;BME280;55187;49.496;6.010;2023-01-31T09:37:30;98470.28;;;-0.27;100.00
55079;BME280;55187;49.496;6.010;2023-01-31T09:39:57;98477.72;;;-0.20;100.00
55079;BME280;55187;49.496;6.010;2023-01-31T09:42:32;98472.22;;;-0.16;100.00
55079;BME280;55187;49.496;6.010;2023-01-31T09:45:06;98459.94;;;-0.14;100.00
55079;BME280;55187;49.496;6.010;2023-01-31T09:47:49;98450.09;;;-0.09;100.00
55079;BME280;55187;49.496;6.010;2023-01-31T09:50:46;98454.69;;;0.01;100.00
55079;BME280;55187;49.496;6.010;2023-01-31T09:53:17;98445.91;;;-0.11;100.00
55079;BME280;55187;49.496;6.010;2023-01-31T09:58:29;98450.41;;;-0.01;100.00
55079;BME280;55187;49.496;6.010;2023-01-31T10:06:22;98450.06;;;0.18;100.00
55079;BME280;55187;49.496;6.010;2023-01-31T10:08:59;98438.31;;;0.38;100.00
55079;BME280;55187;49.496;6.010;2023-01-31T10:11:38;98438.63;;;0.34;100.00
55079;BME280;55187;49.496;6.010;2023-01-31T10:16:57;98425.00;;;0.43;100.00
55079;BME280;55187;49.496;6.010;2023-01-31T10:19:31;98431.84;;;0.31;100.00
55079;BME280;55187;49.496;6.010;2023-01-31T10:22:08;98423.66;;;0.37;100.00
55079;BME280;55187;49.496;6.010;2023-01-31T10:27:45;98447.81;;;0.39;100.00
55079;BME280;55187;49.496;6.010;2023-01-31T10:30:17;98445.53;;;0.35;100.00
55079;BME280;55187;49.496;6.010;2023-01-31T10:32:46;98437.50;;;0.38;100.00
55079;BME280;55187;49.496;6.010;2023-01-31T10:35:32;98438.31;;;0.26;100.00
55079;BME280;55187;49.496;6.010;2023-01-31T10:38:06;98436.25;;;0.31;100.00
55079;BME280;55187;49.496;6.010;2023-01-31T10:40:41;98418.63;;;0.22;100.00
55079;BME280;55187;49.496;6.010;2023-01-31T10:45:39;98419.88;;;0.29;100.00
55079;BME280;55187;49.496;6.010;2023-01-31T10:50:55;98412.09;;;0.41;100.00
55079;BME280;55187;49.496;6.010;2023-01-31T10:53:52;98407.59;;;0.44;100.00
55079;BME280;55187;49.496;6.010;2023-01-31T10:56:33;98396.16;;;0.59;100.00
55079;BME280;55187;49.496;6.010;2023-01-31T10:59:04;98389.09;;;0.74;100.00
55079;BME280;55187;49.496;6.010;2023-01-31T11:01:35;98377.59;;;0.89;100.00
55079;BME280;55187;49.496;6.010;2023-01-31T11:04:18;98366.19;;;1.03;100.00
55079;BME280;55187;49.496;6.010;2023-01-31T11:06:47;98350.38;;;1.30;100.00
55079;BME280;55187;49.496;6.010;2023-01-31T11:09:14;98356.94;;;1.36;100.00
55079;BME280;55187;49.496;6.010;2023-01-31T11:11:54;98356.97;;;1.47;100.00
55079;BME280;55187;49.496;6.010;2023-01-31T11:14:21;98354.50;;;1.45;100.00
55079;BME280;55187;49.496;6.010;2023-01-31T11:16:48;98355.56;;;1.43;100.00
55079;BME280;55187;49.496;6.010;2023-01-31T11:21:54;98370.81;;;1.36;100.00
55079;BME280;55187;49.496;6.010;2023-01-31T11:24:24;98378.25;;;1.30;100.00
55079;BME280;55187;49.496;6.010;2023-01-31T11:27:21;98364.00;;;1.10;100.00
55079;BME280;55187;49.496;6.010;2023-01-31T11:29:50;98360.31;;;1.25;100.00
55079;BME280;55187;49.496;6.010;2023-01-31T11:32:23;98349.81;;;1.38;100.00
55079;BME280;55187;49.496;6.010;2023-01-31T11:37:56;98341.00;;;1.52;100.00
55079;BME280;55187;49.496;6.010;2023-01-31T11:40:27;98335.78;;;1.52;100.00
55079;BME280;55187;49.496;6.010;2023-01-31T11:43:01;98341.56;;;1.44;100.00
55079;BME280;55187;49.496;6.010;2023-01-31T11:45:30;98336.13;;;1.23;100.00
55079;BME280;55187;49.496;6.010;2023-01-31T11:48:16;98331.91;;;1.33;100.00
55079;BME280;55187;49.496;6.010;2023-01-31T11:50:45;98325.47;;;1.26;100.00
55079;BME280;55187;49.496;6.010;2023-01-31T11:53:24;98324.53;;;1.51;100.00
55079;BME280;55187;49.496;6.010;2023-01-31T11:55:54;98325.53;;;1.61;100.00
55079;BME280;55187;49.496;6.010;2023-01-31T11:58:33;98322.97;;;1.49;100.00
55079;BME280;55187;49.496;6.010;2023-01-31T12:01:11;98286.22;;;1.40;100.00
55079;BME280;55187;49.496;6.010;2023-01-31T12:03:54;98277.38;;;1.54;100.00
55079;BME280;55187;49.496;6.010;2023-01-31T12:06:35;98264.44;;;1.53;100.00
55079;BME280;55187;49.496;6.010;2023-01-31T12:09:04;98258.50;;;1.51;100.00
55079;BME280;55187;49.496;6.010;2023-01-31T12:14:18;98249.50;;;1.55;100.00
55079;BME280;55187;49.496;6.010;2023-01-31T12:16:46;98250.38;;;1.31;100.00
55079;BME280;55187;49.496;6.010;2023-01-31T12:19:24;98268.72;;;1.65;100.00
55079;BME280;55187;49.496;6.010;2023-01-31T12:25:16;98292.66;;;1.94;100.00
55079;BME280;55187;49.496;6.010;2023-01-31T12:30:53;98287.22;;;1.97;100.00
55079;BME280;55187;49.496;6.010;2023-01-31T12:36:26;98272.97;;;1.90;100.00
55079;BME280;55187;49.496;6.010;2023-01-31T12:50:25;98272.44;;;1.74;100.00
55079;BME280;55187;49.496;6.010;2023-01-31T12:56:10;98246.69;;;1.69;100.00
55079;BME280;55187;49.496;6.010;2023-01-31T13:08:17;98242.88;;;1.62;100.00
55079;BME280;55187;49.496;6.010;2023-01-31T13:13:59;98228.31;;;1.71;100.00
55079;BME280;55187;49.496;6.010;2023-01-31T13:16:29;98235.69;;;1.77;100.00
55079;BME280;55187;49.496;6.010;2023-01-31T13:19:00;98224.75;;;1.72;100.00
55079;BME280;55187;49.496;6.010;2023-01-31T13:21:34;98225.81;;;1.69;100.00
55079;BME280;55187;49.496;6.010;2023-01-31T13:24:34;98210.28;;;1.67;100.00
55079;BME280;55187;49.496;6.010;2023-01-31T13:27:07;98206.50;;;1.72;100.00
55079;BME280;55187;49.496;6.010;2023-01-31T13:29:45;98204.72;;;1.72;100.00
55079;BME280;55187;49.496;6.010;2023-01-31T13:32:43;98203.09;;;1.82;100.00
55079;BME280;55187;49.496;6.010;2023-01-31T13:35:20;98202.25;;;1.82;100.00
55079;BME280;55187;49.496;6.010;2023-01-31T13:37:50;98193.72;;;1.80;100.00
55079;BME280;55187;49.496;6.010;2023-01-31T13:40:21;98195.84;;;1.86;100.00
55079;BME280;55187;49.496;6.010;2023-01-31T13:42:49;98194.78;;;1.88;100.00
55079;BME280;55187;49.496;6.010;2023-01-31T13:45:43;98177.00;;;1.94;100.00
55079;BME280;55187;49.496;6.010;2023-01-31T13:48:35;98174.50;;;1.92;100.00
55079;BME280;55187;49.496;6.010;2023-01-31T13:51:57;98167.50;;;1.93;100.00
55079;BME280;55187;49.496;6.010;2023-01-31T13:54:41;98173.06;;;1.88;100.00
55079;BME280;55187;49.496;6.010;2023-01-31T14:00:00;98183.28;;;1.80;100.00
55079;BME280;55187;49.496;6.010;2023-01-31T14:02:31;98184.00;;;1.82;100.00
55079;BME280;55187;49.496;6.010;2023-01-31T14:08:27;98185.75;;;1.93;100.00
55079;BME280;55187;49.496;6.010;2023-01-31T14:10:55;98184.22;;;1.90;100.00
55079;BME280;55187;49.496;6.010;2023-01-31T14:13:42;98198.34;;;1.99;100.00
55079;BME280;55187;49.496;6.010;2023-01-31T14:18:57;98202.13;;;1.95;100.00
55079;BME280;55187;49.496;6.010;2023-01-31T14:23:57;98201.66;;;1.89;100.00
55079;BME280;55187;49.496;6.010;2023-01-31T14:29:20;98216.16;;;1.94;100.00
55079;BME280;55187;49.496;6.010;2023-01-31T14:31:49;98208.06;;;1.85;100.00
55079;BME280;55187;49.496;6.010;2023-01-31T14:34:21;98198.59;;;1.96;100.00
55079;BME280;55187;49.496;6.010;2023-01-31T14:39:40;98223.50;;;2.00;100.00
55079;BME280;55187;49.496;6.010;2023-01-31T14:48:04;98223.97;;;1.94;100.00
55079;BME280;55187;49.496;6.010;2023-01-31T14:53:08;98222.56;;;2.01;100.00
55079;BME280;55187;49.496;6.010;2023-01-31T14:58:24;98223.38;;;1.90;100.00
55079;BME280;55187;49.496;6.010;2023-01-31T15:00:54;98221.59;;;1.91;100.00
55079;BME280;55187;49.496;6.010;2023-01-31T15:03:28;98208.88;;;1.86;100.00
55079;BME280;55187;49.496;6.010;2023-01-31T15:06:06;98211.38;;;1.87;100.00
55079;BME280;55187;49.496;6.010;2023-01-31T15:08:40;98214.81;;;1.88;100.00
55079;BME280;55187;49.496;6.010;2023-01-31T15:11:10;98215.66;;;1.88;100.00
55079;BME280;55187;49.496;6.010;2023-01-31T15:13:51;98203.22;;;1.92;100.00
55079;BME280;55187;49.496;6.010;2023-01-31T15:19:19;98223.72;;;1.85;100.00
55079;BME280;55187;49.496;6.010;2023-01-31T15:21:48;98211.13;;;1.79;100.00